createdAt,value
2019-04-16T00:01:44.692Z,10.08
2019-04-16T00:04:27.251Z,12.07
2019-04-16T00:07:14.560Z,12.73
2019-04-16T00:10:03.167Z,16.42
2019-04-16T00:12:51.705Z,12.88
2019-04-16T00:15:21.280Z,13.68
2019-04-16T00:17:50.913Z,11.28
2019-04-16T00:20:20.518Z,17.25
2019-04-16T00:22:56.571Z,13.30
2019-04-16T00:25:26.368Z,15.05
2019-04-16T00:27:59.591Z,13.08
2019-04-16T00:30:27.200Z,16.17
2019-04-16T00:32:56.870Z,13.48
2019-04-16T00:35:26.744Z,11.90
2019-04-16T00:37:56.340Z,13.72
2019-04-16T00:40:27.305Z,14.55
2019-04-16T00:42:57.416Z,12.55
2019-04-16T00:45:27.090Z,11.68
2019-04-16T00:47:56.708Z,13.60
2019-04-16T00:50:26.278Z,16.82
2019-04-16T00:52:55.985Z,13.93
2019-04-16T00:55:25.437Z,13.45
2019-04-16T00:57:55.011Z,10.43
2019-04-16T01:00:24.598Z,10.78
2019-04-16T01:02:54.251Z,14.33
2019-04-16T01:05:23.816Z,12.55
2019-04-16T01:07:53.343Z,14.60
2019-04-16T01:10:22.998Z,12.73
2019-04-16T01:12:52.563Z,18.20
2019-04-16T01:15:22.081Z,12.50
2019-04-16T01:17:52.626Z,11.78
2019-04-16T01:20:22.132Z,10.55
2019-04-16T01:22:51.738Z,20.37
2019-04-16T01:25:23.247Z,9.33
2019-04-16T01:28:00.784Z,15.00
2019-04-16T01:30:46.271Z,11.03
2019-04-16T01:33:22.008Z,13.10
2019-04-16T01:36:07.309Z,9.60
2019-04-16T01:38:49.014Z,10.48
2019-04-16T01:41:21.663Z,13.62
2019-04-16T01:43:50.036Z,10.15
2019-04-16T01:46:19.712Z,10.28
2019-04-16T01:48:49.256Z,13.83
2019-04-16T01:51:19.032Z,20.02
2019-04-16T01:53:49.468Z,13.48
2019-04-16T01:56:19.797Z,9.88
2019-04-16T01:58:49.354Z,10.23
2019-04-16T02:01:19.013Z,9.50
2019-04-16T02:03:49.563Z,9.10
2019-04-16T02:06:19.354Z,13.62
2019-04-16T02:08:48.992Z,11.90
2019-04-16T02:11:18.558Z,17.02
2019-04-16T02:13:48.080Z,10.80
2019-04-16T02:16:17.628Z,10.00
2019-04-16T02:18:47.134Z,12.88
2019-04-16T02:21:16.771Z,12.20
2019-04-16T02:23:48.130Z,8.70
2019-04-16T02:26:17.364Z,12.50
2019-04-16T02:28:46.971Z,11.60
2019-04-16T02:31:16.502Z,10.55
2019-04-16T02:33:46.144Z,13.90
2019-04-16T02:36:15.795Z,9.85
2019-04-16T02:38:52.324Z,13.43
2019-04-16T02:41:16.488Z,10.38
2019-04-16T02:43:46.136Z,13.10
2019-04-16T02:46:15.689Z,13.18
2019-04-16T02:48:49.974Z,12.95
2019-04-16T02:51:23.628Z,10.48
2019-04-16T02:54:14.403Z,11.12
2019-04-16T02:57:25.808Z,13.50
2019-04-16T02:59:52.556Z,14.40
2019-04-16T03:02:38.118Z,15.10
2019-04-16T03:05:35.887Z,10.88
2019-04-16T03:08:05.985Z,14.75
2019-04-16T03:10:35.934Z,12.30
2019-04-16T03:13:05.823Z,14.58
2019-04-16T03:16:12.360Z,11.83
2019-04-16T03:18:49.632Z,7.87
2019-04-16T03:21:19.311Z,10.70
2019-04-16T03:23:48.807Z,8.48
2019-04-16T03:26:18.389Z,14.98
2019-04-16T03:28:47.915Z,13.68
2019-04-16T03:31:22.203Z,11.95
2019-04-16T03:33:50.896Z,14.20
2019-04-16T03:36:20.065Z,11.30
2019-04-16T03:38:49.799Z,10.05
2019-04-16T03:41:19.353Z,15.30
2019-04-16T03:43:48.930Z,8.80
2019-04-16T03:46:18.448Z,13.62
2019-04-16T03:48:48.617Z,9.85
2019-04-16T03:51:18.441Z,9.18
2019-04-16T03:53:49.741Z,13.28
2019-04-16T03:56:19.178Z,8.48
2019-04-16T03:58:48.863Z,12.68
2019-04-16T04:01:21.219Z,12.28
2019-04-16T04:03:50.844Z,11.55
2019-04-16T04:06:20.594Z,9.65
2019-04-16T04:08:53.098Z,8.38
2019-04-16T04:11:21.815Z,11.43
2019-04-16T04:13:51.406Z,10.53
2019-04-16T04:16:21.092Z,12.85
2019-04-16T04:18:50.711Z,10.78
2019-04-16T04:21:22.054Z,9.68
2019-04-16T04:23:51.463Z,9.98
2019-04-16T04:26:21.131Z,10.05
2019-04-16T04:28:51.597Z,15.25
2019-04-16T04:31:22.195Z,14.73
2019-04-16T04:33:52.048Z,12.78
2019-04-16T04:36:23.335Z,9.98
2019-04-16T04:38:53.095Z,14.38
2019-04-16T04:41:24.138Z,10.30
2019-04-16T04:43:53.858Z,16.10
2019-04-16T04:46:23.415Z,11.43
2019-04-16T04:48:55.324Z,10.80
2019-04-16T04:51:24.159Z,8.55
2019-04-16T04:53:53.671Z,14.18
2019-04-16T04:56:27.664Z,11.78
2019-04-16T04:58:54.557Z,15.43
2019-04-16T05:01:24.174Z,13.78
2019-04-16T05:04:12.606Z,13.78
2019-04-16T05:06:42.504Z,12.88
2019-04-16T05:09:12.168Z,15.38
2019-04-16T05:11:41.906Z,11.78
2019-04-16T05:14:11.673Z,10.38
2019-04-16T05:16:41.309Z,10.70
2019-04-16T05:19:13.772Z,9.50
2019-04-16T05:21:42.429Z,12.00
2019-04-16T05:24:11.977Z,17.65
2019-04-16T05:26:41.733Z,10.28
2019-04-16T05:29:16.280Z,11.50
2019-04-16T05:31:43.902Z,12.13
2019-04-16T05:34:16.794Z,13.88
2019-04-16T05:36:47.693Z,10.15
2019-04-16T05:39:16.049Z,13.08
2019-04-16T05:41:45.711Z,12.90
2019-04-16T05:44:17.911Z,14.35
2019-04-16T05:46:47.515Z,12.07
2019-04-16T05:49:18.442Z,19.10
2019-04-16T05:51:50.981Z,14.50
2019-04-16T05:54:41.448Z,10.30
2019-04-16T05:57:13.298Z,11.35
2019-04-16T05:59:42.994Z,8.45
2019-04-16T06:02:23.748Z,11.50
2019-04-16T06:04:55.977Z,9.78
2019-04-16T06:07:24.567Z,12.95
2019-04-16T06:09:56.698Z,15.75
2019-04-16T06:12:33.435Z,12.23
2019-04-16T06:15:22.581Z,10.45
2019-04-16T06:18:18.317Z,10.98
2019-04-16T06:21:07.427Z,11.88
2019-04-16T06:24:03.382Z,58.10
2019-04-16T06:27:04.693Z,11.05
2019-04-16T06:29:57.581Z,14.65
2019-04-16T06:32:51.724Z,15.38
2019-04-16T06:35:55.451Z,15.15
2019-04-16T06:38:29.217Z,12.18
2019-04-16T06:41:09.748Z,15.38
2019-04-16T06:43:44.916Z,11.08
2019-04-16T06:46:40.035Z,11.08
2019-04-16T06:49:21.278Z,11.57
2019-04-16T06:52:16.646Z,14.03
2019-04-16T06:54:55.791Z,17.35
2019-04-16T06:57:44.300Z,8.88
2019-04-16T07:00:44.957Z,11.75
2019-04-16T07:03:33.617Z,12.60
2019-04-16T07:06:25.165Z,12.58
2019-04-16T07:09:41.111Z,14.73
2019-04-16T07:12:28.490Z,12.58
2019-04-16T07:14:58.234Z,15.20
2019-04-16T07:17:32.954Z,10.48
2019-04-16T07:19:59.129Z,13.05
2019-04-16T07:22:28.778Z,11.05
2019-04-16T07:25:03.780Z,14.23
2019-04-16T07:27:52.251Z,11.83
2019-04-16T07:30:26.325Z,8.63
2019-04-16T07:33:17.807Z,12.68
2019-04-16T07:35:55.770Z,15.45
2019-04-16T07:38:47.341Z,15.35
2019-04-16T07:41:48.622Z,12.13
2019-04-16T07:44:29.013Z,16.37
2019-04-16T07:47:09.538Z,11.48
2019-04-16T07:50:06.931Z,12.33
2019-04-16T07:52:43.760Z,13.60
2019-04-16T07:55:41.191Z,12.73
2019-04-16T07:58:10.777Z,11.15
2019-04-16T08:00:41.405Z,9.10
2019-04-16T08:03:11.246Z,12.45
2019-04-16T08:05:41.831Z,10.43
2019-04-16T08:08:12.391Z,10.98
2019-04-16T08:10:42.466Z,13.50
2019-04-16T08:13:22.018Z,12.95
2019-04-16T08:15:51.618Z,14.20
2019-04-16T08:18:21.212Z,14.93
2019-04-16T08:21:01.365Z,12.30
2019-04-16T08:23:39.677Z,10.13
2019-04-16T08:26:13.348Z,16.20
2019-04-16T08:28:40.647Z,12.63
2019-04-16T08:31:14.622Z,33.88
2019-04-16T08:33:44.143Z,19.07
2019-04-16T08:36:14.060Z,21.45
2019-04-16T08:38:43.763Z,14.80
2019-04-16T08:41:16.631Z,10.08
2019-04-16T08:43:44.560Z,16.40
2019-04-16T08:46:14.123Z,18.32
2019-04-16T08:48:48.908Z,13.80
2019-04-16T08:51:29.227Z,15.85
2019-04-16T08:53:46.746Z,11.33
2019-04-16T08:56:17.181Z,11.45
2019-04-16T08:58:46.779Z,12.80
2019-04-16T09:01:23.289Z,15.72
2019-04-16T09:03:50.042Z,13.25
2019-04-16T09:06:19.626Z,13.15
2019-04-16T09:09:24.283Z,11.33
2019-04-16T09:11:57.021Z,16.17
2019-04-16T09:14:28.793Z,14.65
2019-04-16T09:17:09.513Z,12.60
2019-04-16T09:19:39.485Z,11.75
2019-04-16T09:22:09.085Z,16.65
2019-04-16T09:24:44.730Z,14.07
2019-04-16T09:27:34.325Z,14.75
2019-04-16T09:30:39.216Z,15.08
2019-04-16T09:33:15.274Z,13.18
2019-04-16T09:36:08.218Z,12.10
2019-04-16T09:38:49.525Z,11.97
2019-04-16T09:41:25.722Z,18.73
2019-04-16T09:43:58.097Z,17.02
2019-04-16T09:46:49.838Z,14.45
2019-04-16T09:48:59.033Z,12.70
2019-04-16T09:51:29.101Z,15.30
2019-04-16T09:53:58.585Z,13.18
2019-04-16T09:56:32.156Z,14.98
2019-04-16T09:59:11.031Z,13.38
2019-04-16T10:01:42.799Z,19.20
2019-04-16T10:04:14.881Z,13.58
2019-04-16T10:06:44.491Z,13.25
2019-04-16T10:09:20.419Z,15.70
2019-04-16T10:11:45.409Z,11.65
2019-04-16T10:14:15.444Z,17.40
2019-04-16T10:16:45.594Z,15.30
2019-04-16T10:19:15.155Z,16.95
2019-04-16T10:21:45.075Z,15.03
2019-04-16T10:24:51.575Z,13.50
2019-04-16T10:27:46.546Z,14.73
2019-04-16T10:30:38.853Z,17.53
2019-04-16T10:33:08.624Z,16.30
2019-04-16T10:35:38.526Z,14.10
2019-04-16T10:38:27.253Z,15.57
2019-04-16T10:41:04.541Z,22.53
2019-04-16T10:44:02.216Z,15.87
2019-04-16T10:46:54.199Z,20.53
2019-04-16T10:49:32.638Z,18.80
2019-04-16T10:52:26.891Z,22.37
2019-04-16T10:55:01.400Z,15.63
2019-04-16T10:57:48.702Z,18.50
2019-04-16T11:00:46.516Z,12.73
2019-04-16T11:03:24.354Z,19.43
2019-04-16T11:05:58.395Z,18.83
2019-04-16T11:08:28.401Z,19.57
2019-04-16T11:10:58.159Z,15.40
2019-04-16T11:13:33.554Z,14.47
2019-04-16T11:16:09.749Z,17.20
2019-04-16T11:18:39.491Z,16.60
2019-04-16T11:21:09.264Z,16.00
2019-04-16T11:23:39.046Z,19.80
2019-04-16T11:26:08.586Z,19.37
2019-04-16T11:28:38.163Z,18.17
2019-04-16T11:31:11.928Z,16.03
2019-04-16T11:33:41.533Z,19.70
2019-04-16T11:36:19.463Z,22.00
2019-04-16T11:38:42.228Z,23.10
2019-04-16T11:41:11.876Z,14.80
2019-04-16T11:43:41.413Z,17.70
2019-04-16T11:46:11.484Z,27.53
2019-04-16T11:48:41.103Z,14.20
2019-04-16T11:51:10.672Z,18.43
2019-04-16T11:53:40.250Z,18.83
2019-04-16T11:56:09.809Z,15.90
2019-04-16T11:58:48.366Z,14.13
2019-04-16T12:01:23.951Z,15.47
2019-04-16T12:04:00.460Z,32.90
2019-04-16T12:06:47.364Z,24.37
2019-04-16T12:09:53.918Z,19.40
2019-04-16T12:12:27.728Z,17.50
2019-04-16T12:15:15.146Z,16.90
2019-04-16T12:17:56.536Z,28.80
2019-04-16T12:20:44.912Z,18.60
2019-04-16T12:23:42.310Z,16.07
2019-04-16T12:26:31.943Z,29.07
2019-04-16T12:29:26.569Z,16.80
2019-04-16T12:32:13.787Z,18.13
2019-04-16T12:35:05.697Z,17.63
2019-04-16T12:37:52.614Z,13.67
2019-04-16T12:40:47.155Z,16.67
2019-04-16T12:43:27.194Z,19.57
2019-04-16T12:46:12.341Z,14.20
2019-04-16T12:49:15.759Z,16.47
2019-04-16T12:51:54.401Z,14.70
2019-04-16T12:54:41.677Z,16.70
2019-04-16T12:57:46.902Z,18.00
2019-04-16T13:00:31.634Z,16.97
2019-04-16T13:03:19.110Z,17.30
2019-04-16T13:06:27.010Z,19.33
2019-04-16T13:09:33.634Z,19.10
2019-04-16T13:12:21.567Z,23.60
2019-04-16T13:15:13.373Z,17.47
2019-04-16T13:18:01.829Z,16.23
2019-04-16T13:20:57.131Z,19.10
2019-04-16T13:23:36.866Z,15.03
2019-04-16T13:26:43.581Z,24.23
2019-04-16T13:29:19.072Z,19.80
2019-04-16T13:31:48.661Z,16.97
2019-04-16T13:34:19.322Z,21.40
2019-04-16T13:36:51.658Z,18.80
2019-04-16T13:39:27.709Z,15.10
2019-04-16T13:41:57.319Z,15.10
2019-04-16T13:44:29.980Z,18.83
2019-04-16T13:47:03.024Z,19.57
2019-04-16T13:49:43.065Z,16.90
2019-04-16T13:52:12.635Z,17.67
2019-04-16T13:55:10.639Z,20.30
2019-04-16T13:57:40.715Z,17.90
2019-04-16T14:00:29.117Z,18.20
2019-04-16T14:03:02.598Z,18.63
2019-04-16T14:05:37.532Z,14.60
2019-04-16T14:08:03.510Z,19.17
2019-04-16T14:10:33.059Z,16.13
2019-04-16T14:13:02.890Z,19.13
2019-04-16T14:15:38.957Z,15.30
2019-04-16T14:18:05.941Z,23.87
2019-04-16T14:20:35.529Z,20.20
2019-04-16T14:23:05.144Z,19.70
2019-04-16T14:25:34.781Z,22.90
2019-04-16T14:28:04.380Z,21.83
2019-04-16T14:30:39.504Z,26.03
2019-04-16T14:33:08.562Z,24.47
2019-04-16T14:35:40.383Z,27.20
2019-04-16T14:38:10.551Z,16.83
2019-04-16T14:40:42.300Z,20.43
2019-04-16T14:43:12.719Z,25.67
2019-04-16T14:45:57.665Z,26.53
2019-04-16T14:48:16.613Z,21.10
2019-04-16T14:50:46.181Z,25.97
2019-04-16T14:53:34.918Z,25.27
2019-04-16T14:56:13.258Z,22.80
2019-04-16T14:59:01.774Z,25.67
2019-04-16T15:01:48.895Z,24.20
2019-04-16T15:04:49.316Z,22.40
2019-04-16T15:07:33.097Z,20.40
2019-04-16T15:10:27.501Z,19.67
2019-04-16T15:13:16.408Z,21.37
2019-04-16T15:16:22.255Z,31.50
2019-04-16T15:19:22.020Z,23.43
2019-04-16T15:22:09.108Z,20.07
2019-04-16T15:25:16.165Z,28.73
2019-04-16T15:28:05.359Z,26.20
2019-04-16T15:30:53.962Z,25.90
2019-04-16T15:33:43.742Z,38.50
2019-04-16T15:36:19.422Z,26.70
2019-04-16T15:38:53.961Z,25.83
2019-04-16T15:41:30.466Z,19.13
2019-04-16T15:44:22.637Z,24.00
2019-04-16T15:47:07.697Z,22.00
2019-04-16T15:50:05.007Z,25.50
2019-04-16T15:52:46.349Z,22.97
2019-04-16T15:55:37.041Z,19.77
2019-04-16T15:58:32.142Z,21.40
2019-04-16T16:01:17.664Z,24.93
2019-04-16T16:04:09.140Z,25.30
2019-04-16T16:07:00.713Z,22.60
2019-04-16T16:09:47.754Z,25.33
2019-04-16T16:12:23.057Z,29.87
2019-04-16T16:14:52.864Z,28.80
2019-04-16T16:17:23.398Z,21.07
2019-04-16T16:19:53.085Z,24.70
2019-04-16T16:22:22.735Z,22.50
2019-04-16T16:25:11.442Z,29.30
2019-04-16T16:27:43.865Z,25.93
2019-04-16T16:30:15.036Z,27.47
2019-04-16T16:32:43.796Z,21.07
2019-04-16T16:35:16.740Z,24.20
2019-04-16T16:37:44.760Z,24.17
2019-04-16T16:40:15.089Z,31.80
2019-04-16T16:42:45.690Z,22.27
2019-04-16T16:45:15.469Z,25.20
2019-04-16T16:47:45.259Z,23.20
2019-04-16T16:50:18.057Z,21.23
2019-04-16T16:52:56.434Z,23.07
2019-04-16T16:55:33.668Z,23.50
2019-04-16T16:58:25.196Z,19.53
2019-04-16T17:01:19.148Z,27.83
2019-04-16T17:04:04.110Z,22.20
2019-04-16T17:06:33.716Z,21.43
2019-04-16T17:09:03.961Z,20.43
2019-04-16T17:11:34.392Z,36.80
2019-04-16T17:14:04.150Z,28.23
2019-04-16T17:16:33.954Z,19.10
2019-04-16T17:19:03.621Z,24.97
2019-04-16T17:21:33.451Z,22.27
2019-04-16T17:24:03.105Z,20.97
2019-04-16T17:26:32.902Z,22.07
2019-04-16T17:29:02.598Z,21.53
2019-04-16T17:31:35.807Z,19.23
2019-04-16T17:34:04.936Z,18.87
2019-04-16T17:36:34.748Z,23.73
2019-04-16T17:39:10.429Z,20.73
2019-04-16T17:41:43.350Z,23.87
2019-04-16T17:44:31.958Z,21.83
2019-04-16T17:47:31.498Z,20.40
2019-04-16T17:50:09.520Z,19.37
2019-04-16T17:52:46.604Z,21.90
2019-04-16T17:55:25.281Z,20.70
2019-04-16T17:58:08.333Z,23.13
2019-04-16T18:01:11.763Z,23.30
2019-04-16T18:03:51.624Z,20.30
2019-04-16T18:06:46.015Z,22.40
2019-04-16T18:09:32.803Z,18.93
2019-04-16T18:12:20.704Z,24.10
2019-04-16T18:15:09.641Z,18.60
2019-04-16T18:18:01.345Z,20.57
2019-04-16T18:20:39.246Z,26.40
2019-04-16T18:23:27.842Z,18.20
2019-04-16T18:26:25.871Z,21.13
2019-04-16T18:29:20.391Z,17.60
2019-04-16T18:32:24.058Z,19.20
2019-04-16T18:35:16.117Z,20.90
2019-04-16T18:38:04.231Z,18.60
2019-04-16T18:40:51.295Z,18.90
2019-04-16T18:43:44.232Z,31.73
2019-04-16T18:46:21.045Z,20.40
2019-04-16T18:48:55.061Z,20.30
2019-04-16T18:51:24.258Z,21.27
2019-04-16T18:53:53.772Z,25.10
2019-04-16T18:56:23.308Z,20.60
2019-04-16T18:58:53.032Z,19.50
2019-04-16T19:01:25.971Z,20.70
2019-04-16T19:03:55.526Z,16.90
2019-04-16T19:06:25.317Z,20.03
2019-04-16T19:08:55.022Z,23.53
2019-04-16T19:11:25.109Z,19.10
2019-04-16T19:13:54.805Z,21.33
2019-04-16T19:16:24.463Z,19.67
2019-04-16T19:18:54.070Z,17.23
2019-04-16T19:21:23.766Z,17.90
2019-04-16T19:23:53.374Z,20.68
2019-04-16T19:26:23.552Z,15.90
2019-04-16T19:28:53.582Z,19.33
2019-04-16T19:31:23.929Z,15.83
2019-04-16T19:33:54.360Z,20.90
2019-04-16T19:36:27.458Z,23.20
2019-04-16T19:38:55.614Z,17.73
2019-04-16T19:41:25.398Z,20.07
2019-04-16T19:43:55.239Z,23.17
2019-04-16T19:46:25.123Z,20.70
2019-04-16T19:48:56.667Z,20.90
2019-04-16T19:51:26.388Z,20.40
2019-04-16T19:53:56.019Z,23.60
2019-04-16T19:56:26.934Z,19.07
2019-04-16T19:58:56.517Z,18.30
2019-04-16T20:01:26.605Z,19.13
2019-04-16T20:03:56.434Z,24.80
2019-04-16T20:06:26.345Z,19.05
2019-04-16T20:08:56.333Z,25.50
2019-04-16T20:11:27.074Z,19.35
2019-04-16T20:14:01.479Z,22.65
2019-04-16T20:16:28.928Z,23.83
2019-04-16T20:18:58.933Z,22.17
2019-04-16T20:21:28.794Z,24.57
2019-04-16T20:24:00.622Z,21.48
2019-04-16T20:26:32.558Z,19.63
2019-04-16T20:29:01.784Z,20.68
2019-04-16T20:31:31.407Z,22.50
2019-04-16T20:34:01.120Z,26.00
2019-04-16T20:36:32.956Z,19.67
2019-04-16T20:39:02.591Z,31.45
2019-04-16T20:41:32.268Z,27.00
2019-04-16T20:44:02.133Z,20.70
2019-04-16T20:46:32.022Z,23.40
2019-04-16T20:49:09.645Z,26.40
2019-04-16T20:51:33.298Z,28.07
2019-04-16T20:54:03.041Z,27.05
2019-04-16T20:56:32.677Z,22.22
2019-04-16T20:59:04.329Z,35.00
2019-04-16T21:01:37.527Z,32.95
2019-04-16T21:04:06.472Z,30.55
2019-04-16T21:06:40.780Z,27.22
2019-04-16T21:09:08.299Z,40.60
2019-04-16T21:14:13.414Z,54.95
2019-04-16T21:16:43.697Z,44.63
2019-04-16T21:19:22.891Z,33.67
2019-04-16T21:21:45.056Z,28.67
2019-04-16T21:24:14.774Z,36.48
2019-04-16T21:26:44.546Z,37.63
2019-04-16T21:29:25.411Z,37.33
2019-04-16T21:32:58.837Z,30.00
2019-04-16T21:35:35.592Z,24.43
2019-04-16T21:38:35.261Z,30.00
2019-04-16T21:41:05.113Z,26.30
2019-04-16T21:43:35.682Z,27.95
2019-04-16T21:46:06.565Z,23.05
2019-04-16T21:48:36.212Z,24.43
2019-04-16T21:51:05.943Z,22.87
2019-04-16T21:53:35.721Z,24.27
2019-04-16T21:56:08.120Z,24.60
2019-04-16T21:58:36.917Z,22.27
2019-04-16T22:01:23.961Z,26.57
2019-04-16T22:03:59.683Z,30.52
2019-04-16T22:06:29.591Z,27.73
2019-04-16T22:09:02.492Z,31.35
2019-04-16T22:11:30.633Z,30.12
2019-04-16T22:14:00.506Z,30.08
2019-04-16T22:16:30.632Z,28.85
2019-04-16T22:19:00.724Z,23.57
2019-04-16T22:21:30.437Z,27.13
2019-04-16T22:24:00.031Z,27.00
2019-04-16T22:26:34.233Z,26.10
2019-04-16T22:29:01.044Z,28.73
2019-04-16T22:31:30.682Z,24.67
2019-04-16T22:34:00.367Z,26.55
2019-04-16T22:36:29.959Z,24.02
2019-04-16T22:39:07.737Z,33.28
2019-04-16T22:41:52.524Z,24.23
2019-04-16T22:44:38.435Z,30.23
2019-04-16T22:47:11.428Z,32.03
2019-04-16T22:49:41.219Z,28.38
2019-04-16T22:52:12.470Z,26.52
2019-04-16T22:54:42.388Z,32.75
2019-04-16T22:57:14.183Z,27.48
2019-04-16T22:59:43.861Z,34.90
2019-04-16T23:02:18.407Z,29.45
2019-04-16T23:04:48.042Z,28.90
2019-04-16T23:07:17.761Z,32.17
2019-04-16T23:09:48.742Z,29.12
2019-04-16T23:12:18.937Z,30.82
2019-04-16T23:14:48.548Z,28.10
2019-04-16T23:17:19.120Z,31.55
2019-04-16T23:19:51.697Z,28.52
2019-04-16T23:22:20.036Z,46.92
2019-04-16T23:24:51.733Z,27.22
2019-04-16T23:27:21.235Z,27.27
2019-04-16T23:29:50.832Z,26.62
2019-04-16T23:32:20.548Z,28.73
2019-04-16T23:34:50.082Z,31.48
2019-04-16T23:37:23.064Z,30.48
2019-04-16T23:39:51.115Z,33.75
2019-04-16T23:42:20.796Z,27.85
2019-04-16T23:45:09.369Z,27.95
2019-04-16T23:47:55.544Z,34.18
2019-04-16T23:50:45.292Z,26.50
2019-04-16T23:53:26.166Z,26.73
2019-04-16T23:56:07.677Z,29.82
2019-04-16T23:59:14.418Z,23.85
